createdAt,value
2019-01-30T00:00:39.261Z,1.03
2019-01-30T00:03:05.095Z,1.05
2019-01-30T00:05:30.965Z,1.08
2019-01-30T00:07:56.815Z,1.07
2019-01-30T00:10:22.737Z,1.05
2019-01-30T00:12:48.688Z,1.01
2019-01-30T00:15:14.624Z,1.06
2019-01-30T00:17:40.600Z,1.02
2019-01-30T00:20:09.629Z,1.02
2019-01-30T00:22:35.502Z,1.02
2019-01-30T00:25:01.376Z,0.96
2019-01-30T00:27:27.281Z,0.83
2019-01-30T00:29:53.163Z,0.87
2019-01-30T00:32:19.213Z,0.92
2019-01-30T00:34:45.198Z,0.82
2019-01-30T00:37:11.104Z,0.89
2019-01-30T00:39:36.976Z,1.02
2019-01-30T00:42:02.890Z,1.03
2019-01-30T00:44:29.538Z,1.00
2019-01-30T00:46:55.484Z,0.98
2019-01-30T00:49:21.353Z,0.92
2019-01-30T00:51:47.265Z,0.94
2019-01-30T00:54:13.165Z,1.00
2019-01-30T00:56:39.083Z,1.00
2019-01-30T00:59:04.954Z,0.95
2019-01-30T01:01:30.832Z,0.97
2019-01-30T01:03:56.848Z,0.91
2019-01-30T01:06:22.779Z,0.90
2019-01-30T01:08:48.761Z,0.82
2019-01-30T01:11:14.626Z,0.81
2019-01-30T01:13:40.547Z,0.85
2019-01-30T01:16:06.409Z,0.94
2019-01-30T01:18:32.281Z,0.91
2019-01-30T01:20:58.183Z,0.92
2019-01-30T01:23:24.095Z,0.95
2019-01-30T01:25:49.992Z,0.89
2019-01-30T01:28:15.869Z,0.97
2019-01-30T01:30:41.792Z,1.05
2019-01-30T01:33:07.717Z,1.00
2019-01-30T01:35:33.624Z,1.04
2019-01-30T01:37:59.491Z,1.05
2019-01-30T01:40:26.011Z,1.06
2019-01-30T01:42:51.848Z,1.00
2019-01-30T01:45:20.785Z,1.01
2019-01-30T01:47:46.655Z,1.01
2019-01-30T01:50:17.369Z,1.09
2019-01-30T01:52:43.487Z,1.10
2019-01-30T01:55:10.757Z,1.07
2019-01-30T01:57:36.671Z,1.08
2019-01-30T02:00:06.238Z,1.14
2019-01-30T02:02:32.148Z,1.10
2019-01-30T02:04:58.017Z,1.10
2019-01-30T02:07:23.882Z,1.13
2019-01-30T02:09:49.829Z,1.08
2019-01-30T02:12:15.839Z,1.13
2019-01-30T02:14:41.736Z,1.13
2019-01-30T02:17:07.604Z,1.10
2019-01-30T02:19:33.536Z,1.14
2019-01-30T02:21:59.407Z,1.10
2019-01-30T02:24:25.304Z,1.12
2019-01-30T02:26:51.204Z,0.95
2019-01-30T02:29:17.113Z,0.87
2019-01-30T02:31:43.024Z,0.85
2019-01-30T02:34:08.917Z,0.76
2019-01-30T02:36:36.738Z,0.71
2019-01-30T02:39:05.411Z,0.77
2019-01-30T02:41:31.343Z,0.81
2019-01-30T02:43:57.238Z,0.72
2019-01-30T02:46:23.149Z,0.79
2019-01-30T02:48:49.048Z,0.77
2019-01-30T02:51:14.922Z,0.73
2019-01-30T02:53:40.825Z,0.72
2019-01-30T02:56:06.743Z,0.61
2019-01-30T02:58:32.693Z,0.67
2019-01-30T03:00:59.698Z,0.70
2019-01-30T03:03:25.641Z,0.59
2019-01-30T03:05:51.579Z,0.48
2019-01-30T03:08:17.478Z,0.47
2019-01-30T03:10:43.350Z,0.43
2019-01-30T03:13:09.259Z,0.40
2019-01-30T03:15:35.131Z,0.36
2019-01-30T03:18:01.034Z,0.38
2019-01-30T03:20:27.401Z,0.38
2019-01-30T03:22:53.302Z,0.53
2019-01-30T03:25:21.081Z,0.53
2019-01-30T03:27:47.005Z,0.55
2019-01-30T03:30:18.371Z,0.56
2019-01-30T03:32:44.268Z,0.60
2019-01-30T03:35:14.364Z,0.60
2019-01-30T03:37:40.435Z,0.75
2019-01-30T03:40:10.253Z,0.77
2019-01-30T03:42:36.136Z,0.77
2019-01-30T03:45:03.546Z,0.75
2019-01-30T03:47:29.516Z,0.80
2019-01-30T03:49:55.420Z,0.80
2019-01-30T03:52:21.327Z,0.86
2019-01-30T03:54:47.239Z,0.78
2019-01-30T03:57:13.157Z,0.88
2019-01-30T03:59:39.014Z,0.91
2019-01-30T04:02:06.880Z,1.04
2019-01-30T04:04:32.852Z,0.99
2019-01-30T04:06:58.717Z,1.04
2019-01-30T04:09:24.656Z,1.02
2019-01-30T04:11:50.558Z,1.04
2019-01-30T04:14:16.412Z,1.08
2019-01-30T04:16:42.420Z,1.09
2019-01-30T04:19:08.315Z,1.11
2019-01-30T04:21:34.219Z,1.13
2019-01-30T04:24:00.134Z,1.20
2019-01-30T04:26:26.005Z,1.20
2019-01-30T04:28:51.922Z,1.15
2019-01-30T04:31:20.583Z,1.17
2019-01-30T04:33:46.586Z,1.00
2019-01-30T04:36:12.458Z,1.14
2019-01-30T04:38:38.353Z,1.23
2019-01-30T04:41:04.223Z,1.23
2019-01-30T04:43:30.144Z,1.12
2019-01-30T04:45:56.047Z,0.99
2019-01-30T04:48:21.961Z,1.12
2019-01-30T04:50:47.835Z,1.01
2019-01-30T04:53:13.747Z,1.16
2019-01-30T04:55:39.611Z,1.23
2019-01-30T04:58:05.606Z,1.20
2019-01-30T05:00:31.534Z,1.11
2019-01-30T05:02:57.524Z,1.05
2019-01-30T05:05:23.472Z,1.09
2019-01-30T05:07:49.332Z,1.02
2019-01-30T05:10:15.279Z,1.06
2019-01-30T05:12:41.172Z,1.15
2019-01-30T05:15:12.422Z,1.09
2019-01-30T05:17:38.298Z,0.85
2019-01-30T05:20:09.695Z,1.15
2019-01-30T05:22:35.478Z,1.02
2019-01-30T05:25:01.402Z,1.18
2019-01-30T05:27:29.444Z,1.12
2019-01-30T05:29:55.718Z,1.12
2019-01-30T05:32:21.681Z,1.23
2019-01-30T05:34:47.588Z,1.24
2019-01-30T05:37:13.510Z,1.33
2019-01-30T05:39:39.419Z,1.25
2019-01-30T05:42:05.378Z,1.25
2019-01-30T05:44:31.213Z,1.29
2019-01-30T05:46:57.156Z,1.36
2019-01-30T05:49:23.062Z,1.37
2019-01-30T05:51:48.927Z,1.39
2019-01-30T05:54:14.836Z,1.29
2019-01-30T05:56:40.722Z,1.28
2019-01-30T05:59:06.639Z,1.33
2019-01-30T06:01:32.519Z,1.35
2019-01-30T06:03:58.421Z,1.33
2019-01-30T06:06:24.287Z,1.34
2019-01-30T06:08:50.205Z,1.28
2019-01-30T06:11:16.133Z,1.21
2019-01-30T06:13:42.003Z,1.27
2019-01-30T06:16:07.913Z,1.19
2019-01-30T06:18:33.813Z,1.19
2019-01-30T06:20:59.725Z,1.32
2019-01-30T06:23:26.510Z,1.20
2019-01-30T06:25:52.446Z,1.05
2019-01-30T06:28:18.420Z,1.22
2019-01-30T06:30:44.361Z,1.32
2019-01-30T06:33:10.249Z,1.09
2019-01-30T06:35:36.138Z,1.24
2019-01-30T06:38:02.170Z,1.38
2019-01-30T06:40:30.026Z,1.29
2019-01-30T06:42:55.936Z,1.20
2019-01-30T06:45:21.912Z,1.35
2019-01-30T06:47:47.874Z,1.31
2019-01-30T06:50:13.814Z,1.21
2019-01-30T06:52:39.692Z,1.31
2019-01-30T06:55:05.635Z,1.14
2019-01-30T06:57:31.544Z,1.29
2019-01-30T06:59:57.460Z,1.36
2019-01-30T07:02:32.091Z,1.29
2019-01-30T07:04:51.282Z,1.21
2019-01-30T07:07:17.281Z,1.23
2019-01-30T07:09:43.201Z,1.31
2019-01-30T07:12:09.084Z,1.41
2019-01-30T07:14:35.003Z,1.43
2019-01-30T07:17:00.893Z,1.29
2019-01-30T07:19:26.777Z,1.27
2019-01-30T07:21:56.068Z,1.31
2019-01-30T07:24:22.053Z,1.40
2019-01-30T07:26:47.967Z,1.47
2019-01-30T07:29:14.086Z,1.55
2019-01-30T07:31:40.007Z,1.50
2019-01-30T07:34:05.926Z,1.51
2019-01-30T07:36:31.833Z,1.59
2019-01-30T07:38:57.700Z,1.46
2019-01-30T07:41:23.615Z,1.49
2019-01-30T07:43:49.485Z,1.46
2019-01-30T07:46:15.396Z,1.55
2019-01-30T07:48:41.311Z,1.55
2019-01-30T07:51:07.248Z,1.58
2019-01-30T07:53:33.232Z,1.59
2019-01-30T07:55:59.129Z,1.48
2019-01-30T07:58:25.049Z,1.60
2019-01-30T08:00:50.929Z,1.62
2019-01-30T08:03:17.152Z,1.71
2019-01-30T08:05:43.065Z,1.69
2019-01-30T08:08:08.980Z,1.80
2019-01-30T08:10:34.902Z,1.78
2019-01-30T08:13:00.815Z,1.92
2019-01-30T08:15:26.670Z,1.91
2019-01-30T08:17:55.008Z,2.01
2019-01-30T08:20:21.378Z,2.10
2019-01-30T08:22:47.525Z,2.12
2019-01-30T08:25:15.686Z,2.24
2019-01-30T08:27:41.971Z,2.27
2019-01-30T08:30:27.421Z,2.24
2019-01-30T08:33:03.784Z,2.16
2019-01-30T08:35:23.074Z,2.13
2019-01-30T08:37:48.986Z,2.00
2019-01-30T08:40:15.015Z,2.26
2019-01-30T08:42:40.879Z,2.27
2019-01-30T08:45:16.443Z,2.26
2019-01-30T08:47:42.316Z,2.34
2019-01-30T08:50:10.935Z,2.36
2019-01-30T08:52:36.804Z,2.22
2019-01-30T08:55:04.914Z,2.42
2019-01-30T08:57:30.793Z,2.63
2019-01-30T08:59:56.735Z,2.65
2019-01-30T09:02:23.998Z,2.61
2019-01-30T09:04:49.869Z,2.69
2019-01-30T09:07:15.783Z,2.68
2019-01-30T09:09:41.689Z,2.79
2019-01-30T09:12:07.590Z,2.79
2019-01-30T09:14:33.461Z,2.74
2019-01-30T09:16:59.633Z,2.92
2019-01-30T09:19:25.540Z,3.00
2019-01-30T09:21:51.452Z,3.11
2019-01-30T09:24:17.337Z,3.07
2019-01-30T09:26:43.288Z,2.96
2019-01-30T09:29:09.217Z,3.06
2019-01-30T09:31:35.132Z,3.15
2019-01-30T09:34:01.032Z,3.15
2019-01-30T09:36:26.960Z,3.23
2019-01-30T09:38:52.832Z,3.27
2019-01-30T09:41:18.748Z,3.35
2019-01-30T09:43:44.673Z,3.21
2019-01-30T09:46:10.570Z,3.33
2019-01-30T09:48:37.054Z,3.30
2019-01-30T09:51:03.080Z,3.37
2019-01-30T09:53:29.025Z,3.43
2019-01-30T09:55:54.905Z,3.38
2019-01-30T09:58:20.808Z,3.31
2019-01-30T10:00:46.698Z,3.41
2019-01-30T10:03:12.615Z,3.31
2019-01-30T10:05:38.490Z,3.40
2019-01-30T10:08:04.488Z,3.46
2019-01-30T10:10:36.048Z,3.64
2019-01-30T10:13:02.465Z,3.60
2019-01-30T10:15:36.129Z,3.43
2019-01-30T10:18:02.013Z,3.76
2019-01-30T10:20:29.522Z,3.74
2019-01-30T10:22:55.397Z,3.63
2019-01-30T10:25:21.302Z,3.75
2019-01-30T10:27:47.195Z,3.77
2019-01-30T10:30:18.740Z,3.98
2019-01-30T10:32:44.636Z,3.95
2019-01-30T10:35:10.501Z,4.15
2019-01-30T10:37:36.410Z,4.29
2019-01-30T10:40:06.111Z,4.15
2019-01-30T10:42:32.007Z,4.00
2019-01-30T10:44:57.879Z,4.16
2019-01-30T10:47:23.785Z,4.22
2019-01-30T10:49:49.709Z,4.37
2019-01-30T10:52:15.611Z,4.31
2019-01-30T10:54:41.624Z,4.35
2019-01-30T10:57:07.503Z,4.27
2019-01-30T10:59:33.424Z,4.20
2019-01-30T11:01:59.308Z,4.02
2019-01-30T11:04:25.229Z,4.17
2019-01-30T11:06:54.084Z,4.25
2019-01-30T11:09:20.188Z,4.27
2019-01-30T11:11:46.057Z,4.16
2019-01-30T11:14:11.982Z,4.22
2019-01-30T11:16:37.858Z,4.18
2019-01-30T11:19:03.992Z,4.37
2019-01-30T11:21:29.971Z,4.19
2019-01-30T11:23:55.850Z,4.20
2019-01-30T11:26:21.753Z,4.25
2019-01-30T11:28:47.706Z,4.27
2019-01-30T11:31:13.744Z,4.27
2019-01-30T11:33:39.670Z,4.19
2019-01-30T11:36:05.578Z,4.31
2019-01-30T11:38:31.456Z,4.44
2019-01-30T11:40:57.470Z,4.54
2019-01-30T11:43:23.335Z,4.61
2019-01-30T11:45:49.258Z,4.60
2019-01-30T11:48:15.153Z,4.76
2019-01-30T11:50:41.087Z,4.72
2019-01-30T11:53:07.058Z,4.53
2019-01-30T11:55:33.020Z,4.60
2019-01-30T11:57:58.904Z,4.52
2019-01-30T12:00:34.232Z,4.58
2019-01-30T12:03:00.127Z,4.48
2019-01-30T12:05:26.011Z,4.43
2019-01-30T12:07:51.929Z,4.38
2019-01-30T12:10:17.829Z,4.20
2019-01-30T12:12:43.740Z,4.33
2019-01-30T12:15:13.428Z,4.40
2019-01-30T12:17:40.328Z,4.56
2019-01-30T12:20:09.371Z,4.35
2019-01-30T12:22:35.253Z,4.50
2019-01-30T12:25:01.155Z,4.40
2019-01-30T12:27:27.082Z,4.52
2019-01-30T12:29:53.103Z,4.39
2019-01-30T12:32:18.984Z,4.50
2019-01-30T12:34:44.992Z,4.62
2019-01-30T12:37:10.918Z,4.66
2019-01-30T12:39:36.787Z,4.52
2019-01-30T12:42:02.773Z,4.60
2019-01-30T12:44:28.643Z,4.54
2019-01-30T12:46:54.553Z,4.69
2019-01-30T12:49:20.449Z,4.66
2019-01-30T12:51:46.369Z,4.77
2019-01-30T12:54:12.508Z,4.76
2019-01-30T12:56:38.416Z,4.89
2019-01-30T12:59:04.272Z,4.66
2019-01-30T13:01:31.021Z,4.62
2019-01-30T13:03:56.964Z,4.66
2019-01-30T13:06:22.874Z,4.76
2019-01-30T13:08:48.740Z,4.60
2019-01-30T13:11:14.717Z,4.63
2019-01-30T13:13:40.592Z,4.62
2019-01-30T13:16:06.458Z,4.78
2019-01-30T13:18:32.411Z,4.64
2019-01-30T13:20:58.283Z,4.67
2019-01-30T13:23:24.178Z,4.73
2019-01-30T13:25:50.068Z,4.58
2019-01-30T13:28:16.008Z,4.51
2019-01-30T13:30:43.795Z,4.44
2019-01-30T13:33:09.811Z,4.44
2019-01-30T13:35:35.686Z,4.44
2019-01-30T13:38:01.580Z,4.34
2019-01-30T13:40:29.637Z,4.30
2019-01-30T13:42:55.580Z,4.24
2019-01-30T13:45:21.449Z,4.22
2019-01-30T13:47:47.363Z,4.29
2019-01-30T13:50:16.677Z,4.42
2019-01-30T13:52:42.557Z,4.49
2019-01-30T13:55:09.525Z,4.21
2019-01-30T13:57:35.460Z,4.29
2019-01-30T14:00:01.356Z,4.14
2019-01-30T14:02:27.207Z,4.18
2019-01-30T14:04:59.290Z,4.24
2019-01-30T14:07:20.989Z,4.24
2019-01-30T14:09:46.906Z,4.12
2019-01-30T14:12:12.845Z,4.14
2019-01-30T14:14:38.744Z,4.11
2019-01-30T14:17:04.643Z,4.08
2019-01-30T14:19:30.556Z,3.98
2019-01-30T14:21:56.400Z,3.89
2019-01-30T14:24:22.285Z,3.99
2019-01-30T14:26:48.206Z,3.96
2019-01-30T14:29:14.070Z,3.95
2019-01-30T14:31:39.979Z,4.03
2019-01-30T14:34:05.859Z,4.05
2019-01-30T14:36:31.751Z,4.05
2019-01-30T14:38:57.637Z,3.90
2019-01-30T14:41:23.554Z,3.93
2019-01-30T14:43:49.457Z,4.00
2019-01-30T14:46:15.428Z,3.99
2019-01-30T14:48:41.283Z,3.85
2019-01-30T14:51:07.277Z,3.89
2019-01-30T14:53:33.157Z,3.86
2019-01-30T14:55:59.039Z,3.93
2019-01-30T14:58:25.005Z,3.94
2019-01-30T15:00:50.943Z,3.89
2019-01-30T15:03:16.814Z,3.91
2019-01-30T15:05:42.740Z,3.78
2019-01-30T15:08:08.625Z,3.72
2019-01-30T15:10:34.470Z,3.66
2019-01-30T15:13:00.411Z,3.69
2019-01-30T15:15:28.494Z,3.67
2019-01-30T15:17:54.394Z,3.84
2019-01-30T15:20:22.261Z,3.92
2019-01-30T15:22:48.170Z,3.85
2019-01-30T15:25:16.152Z,3.90
2019-01-30T15:27:42.189Z,3.87
2019-01-30T15:30:20.084Z,3.84
2019-01-30T15:32:46.012Z,3.79
2019-01-30T15:35:11.992Z,3.90
2019-01-30T15:37:37.903Z,3.90
2019-01-30T15:40:10.627Z,3.81
2019-01-30T15:42:36.514Z,3.77
2019-01-30T15:45:09.910Z,3.68
2019-01-30T15:47:36.483Z,3.75
2019-01-30T15:50:06.220Z,3.56
2019-01-30T15:52:32.172Z,3.62
2019-01-30T15:54:58.102Z,3.65
2019-01-30T15:57:24.035Z,3.54
2019-01-30T15:59:51.227Z,3.66
2019-01-30T16:02:17.150Z,3.55
2019-01-30T16:04:43.082Z,3.67
2019-01-30T16:07:08.963Z,3.74
2019-01-30T16:09:34.868Z,3.60
2019-01-30T16:12:00.744Z,3.66
2019-01-30T16:14:26.773Z,3.62
2019-01-30T16:16:52.631Z,3.70
2019-01-30T16:19:18.650Z,3.77
2019-01-30T16:21:44.538Z,3.84
2019-01-30T16:24:10.476Z,3.74
2019-01-30T16:26:36.503Z,3.80
2019-01-30T16:29:02.417Z,3.81
2019-01-30T16:31:28.296Z,3.66
2019-01-30T16:33:54.235Z,3.72
2019-01-30T16:36:20.250Z,3.87
2019-01-30T16:38:46.166Z,3.86
2019-01-30T16:41:12.034Z,3.91
2019-01-30T16:43:37.975Z,3.96
2019-01-30T16:46:04.065Z,3.89
2019-01-30T16:48:30.943Z,3.93
2019-01-30T16:50:57.008Z,3.80
2019-01-30T16:53:23.033Z,3.88
2019-01-30T16:55:48.898Z,3.94
2019-01-30T16:58:14.932Z,4.00
2019-01-30T17:00:40.846Z,4.01
2019-01-30T17:03:08.456Z,3.96
2019-01-30T17:05:34.341Z,3.95
2019-01-30T17:08:00.271Z,3.89
2019-01-30T17:10:26.224Z,4.02
2019-01-30T17:12:52.148Z,4.06
2019-01-30T17:15:29.929Z,4.04
2019-01-30T17:17:55.839Z,3.98
2019-01-30T17:20:24.952Z,3.88
2019-01-30T17:22:50.828Z,3.85
2019-01-30T17:25:16.856Z,3.87
2019-01-30T17:27:42.728Z,3.96
2019-01-30T17:30:14.882Z,4.01
2019-01-30T17:32:40.799Z,3.92
2019-01-30T17:35:06.923Z,3.96
2019-01-30T17:37:32.846Z,3.99
2019-01-30T17:39:58.768Z,3.98
2019-01-30T17:42:24.644Z,3.96
2019-01-30T17:44:50.564Z,4.01
2019-01-30T17:47:16.448Z,3.97
2019-01-30T17:49:42.478Z,3.96
2019-01-30T17:52:08.359Z,3.85
2019-01-30T17:54:34.275Z,3.89
2019-01-30T17:57:00.171Z,3.98
2019-01-30T17:59:26.107Z,4.00
2019-01-30T18:01:51.977Z,3.98
2019-01-30T18:04:17.884Z,4.01
2019-01-30T18:06:43.791Z,4.02
2019-01-30T18:09:09.725Z,4.04
2019-01-30T18:11:35.661Z,4.10
2019-01-30T18:14:01.585Z,4.10
2019-01-30T18:16:27.569Z,4.12
2019-01-30T18:18:53.497Z,4.08
2019-01-30T18:21:19.486Z,4.05
2019-01-30T18:23:45.519Z,4.05
2019-01-30T18:26:11.396Z,4.10
2019-01-30T18:28:37.323Z,4.05
2019-01-30T18:31:03.190Z,3.99
2019-01-30T18:33:29.152Z,3.93
2019-01-30T18:35:55.060Z,3.98
2019-01-30T18:38:20.972Z,4.04
2019-01-30T18:40:46.840Z,3.99
2019-01-30T18:43:12.835Z,4.11
2019-01-30T18:45:38.752Z,4.11
2019-01-30T18:48:04.801Z,4.06
2019-01-30T18:50:30.720Z,3.92
2019-01-30T18:52:56.673Z,4.10
2019-01-30T18:55:22.776Z,3.93
2019-01-30T18:57:48.754Z,4.08
2019-01-30T19:00:21.008Z,3.97
2019-01-30T19:02:46.889Z,4.04
2019-01-30T19:05:13.551Z,4.10
2019-01-30T19:07:39.662Z,4.12
2019-01-30T19:10:11.781Z,3.95
2019-01-30T19:12:37.708Z,4.01
2019-01-30T19:15:09.496Z,3.94
2019-01-30T19:17:35.214Z,4.01
2019-01-30T19:20:01.157Z,3.93
2019-01-30T19:22:27.159Z,4.07
2019-01-30T19:24:53.065Z,4.01
2019-01-30T19:27:19.138Z,4.10
2019-01-30T19:29:45.062Z,4.05
2019-01-30T19:32:14.647Z,4.07
2019-01-30T19:34:40.819Z,4.11
2019-01-30T19:37:06.691Z,4.15
2019-01-30T19:39:33.011Z,4.07
2019-01-30T19:41:58.917Z,4.03
2019-01-30T19:44:24.984Z,4.12
2019-01-30T19:46:50.965Z,4.10
2019-01-30T19:49:16.855Z,4.17
2019-01-30T19:51:42.821Z,4.20
2019-01-30T19:54:08.724Z,4.20
2019-01-30T19:56:34.618Z,4.19
2019-01-30T19:59:00.538Z,4.17
2019-01-30T20:01:35.935Z,4.12
2019-01-30T20:03:54.340Z,4.15
2019-01-30T20:06:20.243Z,4.14
2019-01-30T20:08:46.155Z,4.19
2019-01-30T20:11:12.179Z,4.20
2019-01-30T20:13:38.063Z,4.15
2019-01-30T20:16:04.065Z,4.17
2019-01-30T20:18:29.934Z,4.18
2019-01-30T20:20:55.858Z,4.22
2019-01-30T20:23:21.794Z,4.12
2019-01-30T20:25:47.715Z,4.11
2019-01-30T20:28:13.642Z,4.09
2019-01-30T20:30:39.681Z,4.11
2019-01-30T20:33:05.649Z,4.18
2019-01-30T20:35:31.571Z,4.22
2019-01-30T20:37:57.523Z,4.24
2019-01-30T20:40:25.635Z,4.21
2019-01-30T20:42:52.859Z,4.20
2019-01-30T20:45:18.919Z,4.19
2019-01-30T20:47:44.800Z,4.15
2019-01-30T20:50:13.695Z,3.98
2019-01-30T20:52:39.609Z,4.10
2019-01-30T20:55:08.271Z,4.09
2019-01-30T20:57:34.179Z,4.07
2019-01-30T21:00:00.333Z,3.98
2019-01-30T21:02:26.313Z,3.97
2019-01-30T21:04:52.219Z,3.98
2019-01-30T21:07:18.147Z,4.08
2019-01-30T21:09:44.047Z,4.03
2019-01-30T21:12:09.995Z,4.04
2019-01-30T21:14:35.893Z,4.02
2019-01-30T21:17:01.825Z,4.12
2019-01-30T21:19:27.701Z,4.12
2019-01-30T21:21:53.603Z,4.09
2019-01-30T21:24:19.522Z,4.10
2019-01-30T21:26:45.356Z,4.18
2019-01-30T21:29:11.291Z,4.12
2019-01-30T21:31:37.254Z,4.10
2019-01-30T21:34:03.252Z,4.27
2019-01-30T21:36:29.162Z,4.18
2019-01-30T21:38:55.081Z,4.21
2019-01-30T21:41:20.960Z,4.27
2019-01-30T21:43:46.868Z,4.25
2019-01-30T21:46:12.757Z,4.26
2019-01-30T21:48:38.680Z,4.31
2019-01-30T21:51:04.628Z,4.32
2019-01-30T21:53:30.514Z,4.39
2019-01-30T21:55:56.422Z,4.37
2019-01-30T21:58:22.295Z,4.34
2019-01-30T22:00:48.206Z,4.36
2019-01-30T22:03:14.085Z,4.28
2019-01-30T22:05:40.106Z,4.37
2019-01-30T22:08:06.080Z,4.32
2019-01-30T22:10:32.050Z,4.37
2019-01-30T22:12:57.945Z,4.41
2019-01-30T22:15:23.912Z,4.31
2019-01-30T22:17:49.807Z,4.27
2019-01-30T22:20:19.496Z,4.30
2019-01-30T22:22:47.333Z,4.39
2019-01-30T22:25:20.257Z,4.37
2019-01-30T22:27:43.441Z,4.39
2019-01-30T22:30:14.814Z,4.22
2019-01-30T22:32:40.748Z,4.28
2019-01-30T22:35:08.225Z,4.20
2019-01-30T22:37:34.136Z,4.27
2019-01-30T22:40:00.022Z,4.39
2019-01-30T22:42:25.949Z,4.41
2019-01-30T22:44:51.842Z,4.40
2019-01-30T22:47:17.710Z,4.40
2019-01-30T22:49:43.618Z,4.42
2019-01-30T22:52:09.532Z,4.52
2019-01-30T22:54:35.467Z,4.49
2019-01-30T22:57:01.426Z,4.49
2019-01-30T22:59:27.353Z,4.49
2019-01-30T23:01:53.479Z,4.48
2019-01-30T23:04:25.912Z,4.53
2019-01-30T23:06:58.657Z,4.52
2019-01-30T23:09:37.501Z,4.53
2019-01-30T23:12:22.622Z,4.49
2019-01-30T23:14:57.630Z,4.55
2019-01-30T23:17:33.279Z,4.53
2019-01-30T23:20:06.108Z,4.70
2019-01-30T23:22:36.026Z,4.72
2019-01-30T23:25:22.486Z,4.61
2019-01-30T23:27:54.714Z,4.57
2019-01-30T23:30:47.286Z,4.56
2019-01-30T23:33:32.075Z,4.67
2019-01-30T23:36:32.246Z,4.66
2019-01-30T23:39:13.779Z,4.47
2019-01-30T23:41:43.484Z,4.52
2019-01-30T23:44:34.560Z,4.65
2019-01-30T23:47:10.285Z,4.51
2019-01-30T23:50:13.782Z,4.65
2019-01-30T23:53:01.083Z,4.69
2019-01-30T23:55:36.877Z,4.66
2019-01-30T23:58:12.424Z,4.46
